Time;durP1;ratioP1;P1;durP2;ratioP2;P2;SDS_P1;SDS_P2;PMS_P1;PMS_P2;Temp;Humidity;BMP_temperature;BMP_pressure;BME280_temperature;BME280_humidity;BME280_pressure;Samples;Min_cycle;Max_cycle;Signal;HPM_P1;HPM_P2
2021/08/02 00:01:10;;;;;;;1.92;1.10;;;;;;;28.31;34.46;61776.06;4985956;28;20892;-34
2021/08/02 00:03:54;;;;;;;4.05;1.40;;;;;;;28.31;34.71;61776.06;4983288;28;20042;-37
2021/08/02 00:06:24;;;;;;;2.33;1.05;;;;;;;28.31;34.67;61775.91;5001072;28;20025;-35
2021/08/02 00:09:04;;;;;;;2.30;0.80;;;;;;;28.31;34.77;61775.41;4989298;28;20054;-32
2021/08/02 00:11:32;;;;;;;3.13;0.90;;;;;;;28.31;34.60;61775.72;4984917;28;20114;-32
2021/08/02 00:14:00;;;;;;;1.65;1.15;;;;;;;28.31;34.44;61775.88;4989429;28;20564;-33
2021/08/02 00:16:26;;;;;;;2.05;1.25;;;;;;;28.31;34.78;61775.72;4987903;28;20125;-31
2021/08/02 00:18:51;;;;;;;4.18;1.05;;;;;;;28.31;34.70;61775.56;4984580;28;20422;-30
2021/08/02 00:21:17;;;;;;;3.97;0.85;;;;;;;28.31;34.83;61775.66;4981938;28;20395;-35
2021/08/02 00:23:42;;;;;;;2.42;1.02;;;;;;;28.31;34.66;61775.97;4989003;28;20038;-32
2021/08/02 00:26:07;;;;;;;2.45;0.90;;;;;;;28.31;34.64;61775.81;4984858;28;20504;-31
2021/08/02 00:28:33;;;;;;;2.53;1.25;;;;;;;28.31;34.68;61775.81;4989237;28;20034;-36
2021/08/02 00:30:58;;;;;;;1.90;1.30;;;;;;;28.31;34.77;61775.81;4985587;28;20520;-31
2021/08/02 00:33:24;;;;;;;1.75;0.93;;;;;;;28.31;34.60;61775.81;4997375;28;20057;-32
2021/08/02 00:36:20;;;;;;;2.97;0.95;;;;;;;28.31;34.77;61776.16;4990321;28;20033;-34
2021/08/02 00:38:50;;;;;;;1.90;0.95;;;;;;;28.31;34.61;61776.31;4986992;28;20452;-31
2021/08/02 00:41:19;;;;;;;1.55;0.93;;;;;;;28.31;34.74;61776.63;4984655;28;20091;-34
2021/08/02 00:44:03;;;;;;;1.60;0.80;;;;;;;28.31;34.61;61776.31;4983412;28;20026;-31
2021/08/02 00:46:31;;;;;;;2.08;0.95;;;;;;;28.31;34.70;61775.88;4982643;28;20052;-31
2021/08/02 00:48:58;;;;;;;2.03;0.90;;;;;;;28.31;34.59;61775.81;4983290;28;20034;-31
2021/08/02 00:51:24;;;;;;;3.67;0.93;;;;;;;28.31;34.86;61775.72;4987306;28;20037;-34
2021/08/02 00:53:50;;;;;;;1.63;0.90;;;;;;;28.31;34.75;61775.56;5003160;28;20056;-33
2021/08/02 00:56:17;;;;;;;5.32;1.17;;;;;;;28.31;34.80;61776.16;4982512;28;20029;-35
2021/08/02 00:58:43;;;;;;;2.78;1.05;;;;;;;28.31;34.88;61775.97;4987075;28;20084;-32
2021/08/02 01:01:08;;;;;;;6.70;1.20;;;;;;;28.31;34.85;61776.31;4989511;28;20025;-29
2021/08/02 01:03:33;;;;;;;9.18;1.25;;;;;;;28.32;34.96;61776.41;4971100;28;20045;-35
2021/08/02 01:05:59;;;;;;;3.47;1.15;;;;;;;28.32;34.77;61776.41;4994547;28;20100;-31
2021/08/02 01:08:30;;;;;;;2.20;1.15;;;;;;;28.32;34.69;61776.59;4987348;28;20041;-34
2021/08/02 01:10:57;;;;;;;3.22;1.33;;;;;;;28.32;34.88;61777.03;4989199;28;20268;-34
2021/08/02 01:13:25;;;;;;;2.10;1.10;;;;;;;28.32;34.90;61776.88;4989550;28;20575;-34
2021/08/02 01:15:51;;;;;;;2.97;1.08;;;;;;;28.32;34.78;61776.97;4983864;28;20034;-37
2021/08/02 01:18:18;;;;;;;3.38;1.20;;;;;;;28.32;34.68;61777.16;5002990;28;20141;-34
2021/08/02 01:20:46;;;;;;;1.58;0.82;;;;;;;28.32;34.79;61777.31;4990203;28;20401;-33
2021/08/02 01:23:12;;;;;;;1.10;0.80;;;;;;;28.32;34.74;61777.16;4988599;28;20038;-35
2021/08/02 01:25:37;;;;;;;2.72;0.90;;;;;;;28.32;34.93;61777.59;4998086;28;20500;-32
2021/08/02 01:28:14;;;;;;;1.55;0.90;;;;;;;28.32;34.87;61777.41;4991292;28;20065;-33
2021/08/02 01:30:46;;;;;;;0.98;0.80;;;;;;;28.32;34.80;61777.75;4987759;28;20033;-31
2021/08/02 01:33:15;;;;;;;;;;;;;;;28.33;34.80;61778.03;4990625;28;20164;-33
2021/08/02 01:35:43;;;;;;;2.00;0.80;;;;;;;28.33;34.84;61777.88;4992885;28;19921;-32
2021/08/02 01:38:08;;;;;;;1.67;1.00;;;;;;;28.33;34.73;61778.03;5006428;28;20718;-33
2021/08/02 01:40:34;;;;;;;2.15;1.15;;;;;;;28.33;34.76;61778.19;4985071;28;20064;-32
2021/08/02 01:43:05;;;;;;;6.40;0.90;;;;;;;28.33;34.65;61778.03;5006312;28;20047;-36
2021/08/02 01:45:57;;;;;;;4.05;1.55;;;;;;;28.33;34.89;61777.88;4991337;28;20057;-34
2021/08/02 01:48:33;;;;;;;1.80;0.90;;;;;;;28.32;34.69;61777.91;4999677;28;20045;-33
2021/08/02 01:51:37;;;;;;;2.65;1.02;;;;;;;28.32;34.79;61777.75;4973498;28;20099;-32
2021/08/02 01:54:14;;;;;;;1.83;0.82;;;;;;;28.32;34.79;61777.25;4925901;28;20090;-31
2021/08/02 01:56:54;;;;;;;2.25;1.10;;;;;;;28.32;34.67;61776.97;4977153;28;20029;-33
2021/08/02 01:59:21;;;;;;;1.58;0.75;;;;;;;28.32;34.95;61776.97;4984568;28;20551;-35
2021/08/02 02:02:08;;;;;;;1.95;1.15;;;;;;;28.32;34.93;61777.03;4986650;28;20050;-36
2021/08/02 02:04:52;;;;;;;1.83;1.00;;;;;;;28.32;34.81;61777.19;5001230;28;20069;-30
2021/08/02 02:07:17;;;;;;;1.55;0.70;;;;;;;28.32;34.84;61777.19;4992047;28;20023;-34
2021/08/02 02:09:43;;;;;;;1.05;0.68;;;;;;;28.32;34.65;61776.59;4984034;28;20033;-32
2021/08/02 02:12:09;;;;;;;2.53;0.88;;;;;;;28.31;34.78;61776.16;4991175;28;20038;-33
2021/08/02 02:14:36;;;;;;;2.63;1.05;;;;;;;28.31;34.69;61776.47;4990890;28;20527;-35
2021/08/02 02:17:02;;;;;;;1.88;0.85;;;;;;;28.31;34.97;61776.31;5001986;28;20111;-34
2021/08/02 02:19:27;;;;;;;1.85;0.95;;;;;;;28.31;34.86;61776.16;5004672;28;20073;-32
2021/08/02 02:21:53;;;;;;;0.68;0.68;;;;;;;28.31;34.72;61775.72;4986461;28;20026;-36
2021/08/02 02:24:18;;;;;;;1.05;0.90;;;;;;;28.31;34.89;61775.72;4986412;28;20030;-33
2021/08/02 02:26:45;;;;;;;1.92;0.95;;;;;;;28.31;34.91;61775.59;4987150;28;20053;-34
2021/08/02 02:29:14;;;;;;;0.90;0.70;;;;;;;28.30;34.96;61775.31;4987794;28;20559;-34
2021/08/02 02:31:41;;;;;;;2.22;1.00;;;;;;;28.30;34.98;61774.81;4984917;28;20060;-32
2021/08/02 02:34:07;;;;;;;1.20;0.77;;;;;;;28.30;34.93;61774.50;5003978;28;20118;-37
2021/08/02 02:36:32;;;;;;;1.80;0.88;;;;;;;28.30;34.82;61774.06;4987901;28;20450;-32
2021/08/02 02:38:57;;;;;;;1.25;0.65;;;;;;;28.30;34.80;61774.06;4984001;28;20462;-32
2021/08/02 02:41:23;;;;;;;4.07;0.90;;;;;;;28.30;35.04;61774.38;4988318;28;20042;-34
2021/08/02 02:43:48;;;;;;;2.67;0.90;;;;;;;28.30;35.01;61773.91;4990729;28;20026;-34
2021/08/02 02:46:15;;;;;;;2.15;0.70;;;;;;;28.30;34.94;61773.63;4987725;28;20057;-29
2021/08/02 02:48:40;;;;;;;1.20;0.90;;;;;;;28.30;34.89;61773.63;4982104;28;20029;-33
2021/08/02 02:51:06;;;;;;;1.42;0.98;;;;;;;28.30;34.93;61773.63;5001302;28;20044;-34
2021/08/02 02:53:31;;;;;;;2.15;1.00;;;;;;;28.30;34.83;61773.34;4987984;28;20500;-34
2021/08/02 02:55:56;;;;;;;2.22;1.00;;;;;;;28.30;34.86;61773.34;4987172;28;20073;-32
2021/08/02 02:58:22;;;;;;;1.65;0.85;;;;;;;28.30;34.85;61773.34;4987774;28;20026;-36
2021/08/02 03:00:47;;;;;;;2.58;0.98;;;;;;;28.30;34.86;61773.94;4990599;28;20057;-35
2021/08/02 03:03:15;;;;;;;1.85;0.70;;;;;;;28.30;34.80;61773.63;4983565;28;20029;-38
2021/08/02 03:05:40;;;;;;;1.80;0.80;;;;;;;28.30;34.86;61773.63;5006084;28;20022;-37
2021/08/02 03:08:07;;;;;;;3.25;0.70;;;;;;;28.30;34.87;61773.63;5000528;28;20543;-33
2021/08/02 03:10:32;;;;;;;1.83;0.80;;;;;;;28.30;34.85;61773.78;4980316;28;20077;-29
2021/08/02 03:12:58;;;;;;;2.63;1.00;;;;;;;28.30;35.08;61773.78;4985411;28;20041;-33
2021/08/02 03:15:24;;;;;;;3.75;1.08;;;;;;;28.30;34.86;61773.94;4984526;28;20097;-35
2021/08/02 03:17:49;;;;;;;1.30;0.60;;;;;;;28.30;34.94;61773.78;4986880;28;20105;-37
2021/08/02 03:20:15;;;;;;;3.50;1.10;;;;;;;28.30;34.91;61773.66;4986442;28;20030;-31
2021/08/02 03:22:47;;;;;;;1.65;0.80;;;;;;;28.30;34.99;61773.66;4987760;28;20029;-34
2021/08/02 03:25:15;;;;;;;2.28;0.82;;;;;;;28.30;34.85;61773.50;4989507;28;20492;-35
2021/08/02 03:28:02;;;;;;;1.15;0.93;;;;;;;28.29;34.88;61773.56;4987701;28;20049;-32
2021/08/02 03:30:28;;;;;;;0.95;0.65;;;;;;;28.29;34.94;61773.56;4988141;28;20571;-35
2021/08/02 03:32:53;;;;;;;1.20;0.60;;;;;;;28.29;34.91;61773.88;4987094;28;20061;-33
2021/08/02 03:35:19;;;;;;;1.17;1.00;;;;;;;28.29;34.86;61773.38;4989466;28;20034;-30
2021/08/02 03:37:44;;;;;;;1.00;0.68;;;;;;;28.29;34.86;61773.38;4998059;28;20025;-32
2021/08/02 03:40:13;;;;;;;2.80;0.88;;;;;;;28.29;35.07;61773.13;4986997;28;20033;-32
2021/08/02 03:42:39;;;;;;;2.30;0.82;;;;;;;28.29;34.92;61773.13;5000349;28;20040;-31
2021/08/02 03:45:05;;;;;;;2.45;0.85;;;;;;;28.29;34.81;61772.66;4979560;28;20029;-34
2021/08/02 03:47:30;;;;;;;1.77;0.93;;;;;;;28.29;35.09;61772.50;4982963;28;20722;-37
2021/08/02 03:49:56;;;;;;;1.17;0.80;;;;;;;28.29;35.10;61772.81;4986095;28;20042;-35
2021/08/02 03:52:21;;;;;;;1.35;0.88;;;;;;;28.29;34.75;61772.56;4988884;28;20062;-35
2021/08/02 03:54:47;;;;;;;1.85;0.95;;;;;;;28.29;35.13;61772.72;4988158;28;20030;-35
2021/08/02 03:57:12;;;;;;;2.10;0.80;;;;;;;28.29;35.05;61772.56;4987787;28;20034;-33
2021/08/02 03:59:37;;;;;;;1.67;0.85;;;;;;;28.28;35.04;61772.28;4983214;28;20057;-32
2021/08/02 04:02:03;;;;;;;2.95;0.90;;;;;;;28.28;34.89;61772.59;4985491;28;20432;-29
2021/08/02 04:04:29;;;;;;;2.00;0.65;;;;;;;28.28;35.06;61772.28;4983239;28;20113;-31
2021/08/02 04:06:54;;;;;;;3.90;0.70;;;;;;;28.28;34.92;61771.66;4989186;28;20034;-35
2021/08/02 04:10:18;;;;;;;1.85;0.77;;;;;;;-148.56;100.00;61375.16;4989966;28;20026;-31
2021/08/02 04:13:42;;;;;;;1.13;0.60;;;;;;;-148.56;100.00;61375.16;4986147;28;20555;-33
2021/08/02 04:17:06;;;;;;;2.17;0.90;;;;;;;-148.56;100.00;61375.16;4985913;28;20030;-34
2021/08/02 04:20:30;;;;;;;2.67;0.88;;;;;;;-148.56;100.00;61375.16;4988904;28;20500;-36
2021/08/02 04:23:54;;;;;;;1.38;0.70;;;;;;;-148.56;100.00;61375.16;4985691;28;20503;-34
2021/08/02 04:27:18;;;;;;;2.47;0.77;;;;;;;-148.56;100.00;61375.16;4987495;28;20434;-32
2021/08/02 04:30:42;;;;;;;3.63;0.80;;;;;;;-148.56;100.00;61375.16;4987680;28;20101;-35
2021/08/02 04:34:06;;;;;;;3.47;0.90;;;;;;;-148.56;100.00;61375.16;4987879;28;20037;-37
2021/08/02 04:37:29;;;;;;;2.28;0.70;;;;;;;-148.56;100.00;61375.16;4985918;28;20121;-30
2021/08/02 04:40:54;;;;;;;2.22;0.90;;;;;;;-148.56;100.00;61375.16;4986700;28;21219;-32
2021/08/02 04:44:18;;;;;;;1.38;0.57;;;;;;;-148.56;100.00;61375.16;4987150;28;20040;-32
2021/08/02 04:47:41;;;;;;;1.67;1.10;;;;;;;-148.56;100.00;61375.16;4988517;28;20026;-34
2021/08/02 04:51:05;;;;;;;2.38;1.02;;;;;;;-148.56;100.00;61375.16;4983948;28;22643;-31
2021/08/02 04:54:29;;;;;;;2.15;0.70;;;;;;;-148.56;100.00;61375.16;4989555;28;20165;-33
2021/08/02 04:57:53;;;;;;;2.20;0.80;;;;;;;-148.56;100.00;61375.16;4992280;28;20101;-32
2021/08/02 05:01:17;;;;;;;5.32;1.02;;;;;;;-148.56;100.00;61375.16;4992757;28;20552;-30
2021/08/02 05:04:41;;;;;;;4.00;0.88;;;;;;;-148.56;100.00;61375.16;4990678;28;20416;-32
2021/08/02 05:08:04;;;;;;;3.85;0.85;;;;;;;-148.56;100.00;61375.16;4991720;28;20037;-34
2021/08/02 05:11:28;;;;;;;1.38;0.95;;;;;;;-148.56;100.00;61375.16;4991273;28;20101;-35
2021/08/02 05:14:52;;;;;;;3.35;1.00;;;;;;;-148.56;100.00;61375.16;4991001;28;20037;-33
2021/08/02 05:18:16;;;;;;;6.20;0.80;;;;;;;-148.56;100.00;61375.16;4990357;28;20503;-31
2021/08/02 05:21:40;;;;;;;1.38;0.77;;;;;;;-148.56;100.00;61375.16;4988830;28;20088;-31
2021/08/02 05:25:04;;;;;;;2.13;0.75;;;;;;;-148.56;100.00;61375.16;4993126;28;20484;-29
2021/08/02 05:28:28;;;;;;;6.82;1.10;;;;;;;-148.56;100.00;61375.16;4991617;28;20037;-35
2021/08/02 05:31:52;;;;;;;2.22;0.90;;;;;;;-148.56;100.00;61375.16;4990266;28;20381;-37
2021/08/02 05:35:16;;;;;;;6.60;0.80;;;;;;;-148.56;100.00;61375.16;4991157;28;20038;-33
2021/08/02 05:38:40;;;;;;;2.17;1.00;;;;;;;-148.56;100.00;61375.16;4988371;28;20133;-33
2021/08/02 05:42:04;;;;;;;4.90;1.23;;;;;;;-148.56;100.00;61375.16;4991382;28;20399;-31
2021/08/02 05:45:28;;;;;;;2.55;1.00;;;;;;;-148.56;100.00;61375.16;4996612;28;20526;-35
2021/08/02 05:48:52;;;;;;;3.80;1.23;;;;;;;-148.56;100.00;61375.16;4992406;28;20030;-34
2021/08/02 05:52:16;;;;;;;3.92;0.82;;;;;;;-148.56;100.00;61375.16;4986225;28;20041;-36
2021/08/02 05:55:40;;;;;;;2.75;0.80;;;;;;;-148.56;100.00;61375.16;4987804;28;20030;-32
2021/08/02 05:59:04;;;;;;;3.67;0.90;;;;;;;-148.56;100.00;61375.16;4985589;28;20026;-33
2021/08/02 06:02:27;;;;;;;2.25;0.80;;;;;;;-148.56;100.00;61375.16;4985556;28;20026;-33
2021/08/02 06:05:51;;;;;;;1.30;0.80;;;;;;;-148.56;100.00;61375.16;4995846;28;20037;-35
2021/08/02 06:09:15;;;;;;;4.20;1.02;;;;;;;-148.56;100.00;61375.16;4991428;28;20052;-32
2021/08/02 06:12:42;;;;;;;3.22;1.00;;;;;;;-148.56;100.00;61375.16;4985939;28;20040;-29
2021/08/02 06:16:06;;;;;;;2.88;0.90;;;;;;;-148.56;100.00;61375.16;4989666;28;20023;-33
2021/08/02 06:19:30;;;;;;;2.90;0.80;;;;;;;-148.56;100.00;61375.16;4984443;28;20123;-33
2021/08/02 06:22:54;;;;;;;6.07;1.10;;;;;;;-148.56;100.00;61375.16;4989057;28;20083;-34
2021/08/02 06:26:17;;;;;;;2.63;0.70;;;;;;;-148.56;100.00;61375.16;4989321;28;20685;-31
2021/08/02 06:29:41;;;;;;;2.85;0.80;;;;;;;-148.56;100.00;61375.16;4989636;28;20034;-32
2021/08/02 06:33:05;;;;;;;2.55;0.63;;;;;;;-148.56;100.00;61375.16;4990494;28;20040;-30
2021/08/02 06:36:29;;;;;;;2.45;1.00;;;;;;;-148.56;100.00;61375.16;4986364;28;20414;-35
2021/08/02 06:39:53;;;;;;;1.75;0.90;;;;;;;-148.56;100.00;61375.16;4983851;28;20033;-32
2021/08/02 06:43:17;;;;;;;1.33;0.80;;;;;;;-148.56;100.00;61375.16;5002742;28;20045;-34
2021/08/02 06:46:41;;;;;;;13.07;2.38;;;;;;;-148.56;100.00;61375.16;4984160;28;20452;-34
2021/08/02 06:50:05;;;;;;;6.95;1.55;;;;;;;-148.56;100.00;61375.16;4986658;28;20042;-34
2021/08/02 06:53:29;;;;;;;12.48;3.20;;;;;;;-148.56;100.00;61375.16;4989421;28;20078;-31
2021/08/02 06:56:53;;;;;;;8.75;2.13;;;;;;;-148.56;100.00;61375.16;4984102;28;20051;-31
2021/08/02 07:00:17;;;;;;;7.30;2.00;;;;;;;-148.56;100.00;61375.16;4987552;28;20571;-32
2021/08/02 07:03:41;;;;;;;8.23;1.92;;;;;;;-148.56;100.00;61375.16;4985839;28;20952;-33
2021/08/02 07:07:05;;;;;;;9.23;2.20;;;;;;;-148.56;100.00;61375.16;4983401;28;20137;-30
2021/08/02 07:10:29;;;;;;;9.30;2.40;;;;;;;-148.56;100.00;61375.16;4982399;28;20034;-37
2021/08/02 07:13:54;;;;;;;4.78;2.13;;;;;;;-148.56;100.00;61375.16;4983742;28;20042;-31
2021/08/02 07:17:19;;;;;;;10.73;2.10;;;;;;;-148.56;100.00;61375.16;4990506;28;20688;-34
2021/08/02 07:20:43;;;;;;;6.05;2.00;;;;;;;-148.56;100.00;61375.16;4985278;28;20045;-30
2021/08/02 07:24:06;;;;;;;9.68;2.10;;;;;;;-148.56;100.00;61375.16;4987039;28;20030;-36
2021/08/02 07:27:30;;;;;;;4.35;1.55;;;;;;;-148.56;100.00;61375.16;4982518;28;20029;-33
2021/08/02 07:30:54;;;;;;;5.63;1.83;;;;;;;-148.56;100.00;61375.16;4985124;28;20034;-32
2021/08/02 07:34:18;;;;;;;5.47;1.60;;;;;;;-148.56;100.00;61375.16;4982473;28;20037;-32
2021/08/02 07:37:42;;;;;;;2.47;1.50;;;;;;;-148.56;100.00;61375.16;4986619;28;20037;-30
2021/08/02 07:41:06;;;;;;;5.40;1.90;;;;;;;-148.56;100.00;61375.16;4982657;28;20124;-32
2021/08/02 07:44:30;;;;;;;3.25;1.33;;;;;;;-148.56;100.00;61375.16;4971852;28;20022;-31
2021/08/02 07:47:54;;;;;;;3.08;1.40;;;;;;;-148.56;100.00;61375.16;4982200;28;20490;-32
2021/08/02 07:51:18;;;;;;;2.90;1.38;;;;;;;-148.56;100.00;61375.16;4983550;28;20225;-34
2021/08/02 07:54:42;;;;;;;4.18;1.50;;;;;;;-148.56;100.00;61375.16;4981598;28;20026;-33
2021/08/02 07:58:09;;;;;;;9.00;1.30;;;;;;;-148.56;100.00;61375.16;4991342;28;20566;-32
2021/08/02 08:01:33;;;;;;;2.83;1.20;;;;;;;-148.56;100.00;61375.16;4982039;28;20013;-35
2021/08/02 08:04:57;;;;;;;3.05;1.10;;;;;;;-148.56;100.00;61375.16;4991513;28;20535;-35
2021/08/02 08:08:21;;;;;;;4.07;1.10;;;;;;;-148.56;100.00;61375.16;4990729;28;20914;-30
2021/08/02 08:11:45;;;;;;;4.70;1.20;;;;;;;-148.56;100.00;61375.16;4983166;28;20030;-35
2021/08/02 08:15:09;;;;;;;2.70;1.15;;;;;;;-148.56;100.00;61375.16;4984093;28;20514;-34
2021/08/02 08:18:34;;;;;;;3.85;1.38;;;;;;;-148.56;100.00;61375.16;4982298;28;20046;-33
2021/08/02 08:21:58;;;;;;;3.05;1.25;;;;;;;-148.56;100.00;61375.16;4982261;28;20034;-35
2021/08/02 08:25:23;;;;;;;4.60;1.27;;;;;;;-148.56;100.00;61375.16;4989034;28;20048;-37
2021/08/02 08:28:46;;;;;;;3.28;1.10;;;;;;;-148.56;100.00;61375.16;4991739;28;20029;-29
2021/08/02 08:32:10;;;;;;;3.65;1.20;;;;;;;-148.56;100.00;61375.16;5002635;28;20030;-36
2021/08/02 08:35:37;;;;;;;28.15;2.10;;;;;;;-148.56;100.00;61375.16;5002306;28;21106;-31
2021/08/02 08:39:01;;;;;;;3.05;1.15;;;;;;;-148.56;100.00;61375.16;5003567;28;20038;-35
2021/08/02 08:42:25;;;;;;;2.25;1.27;;;;;;;-148.56;100.00;61375.16;4988747;28;20040;-32
2021/08/02 08:45:49;;;;;;;3.53;1.25;;;;;;;-148.56;100.00;61375.16;4989282;28;20037;-33
2021/08/02 08:49:13;;;;;;;1.77;1.15;;;;;;;-148.56;100.00;61375.16;4989432;28;20104;-34
2021/08/02 08:52:37;;;;;;;4.68;1.30;;;;;;;-148.56;100.00;61375.16;4996242;28;20065;-34
2021/08/02 08:56:08;;;;;;;4.93;1.25;;;;;;;-148.56;100.00;61375.16;5000746;28;20529;-36
2021/08/02 08:59:32;;;;;;;6.00;1.30;;;;;;;-148.56;100.00;61375.16;4990864;28;20045;-35
2021/08/02 09:03:09;;;;;;;3.60;1.30;;;;;;;-148.56;100.00;61375.16;4988129;28;20034;-33
2021/08/02 09:06:43;;;;;;;3.58;1.60;;;;;;;-148.56;100.00;61375.16;4984733;28;20034;-37
2021/08/02 09:10:08;;;;;;;3.47;1.27;;;;;;;-148.56;100.00;61375.16;4991742;28;20523;-31
2021/08/02 09:13:32;;;;;;;5.50;1.40;;;;;;;-148.56;100.00;61375.16;4993688;28;20128;-32
2021/08/02 09:17:00;;;;;;;1.58;1.02;;;;;;;-148.56;100.00;61375.16;4989739;28;20057;-35
2021/08/02 09:20:24;;;;;;;4.07;1.35;;;;;;;-148.56;100.00;61375.16;4993375;28;20388;-38
2021/08/02 09:23:50;;;;;;;8.23;1.77;;;;;;;-148.56;100.00;61375.16;5004777;28;20085;-36
2021/08/02 09:27:23;;;;;;;5.72;1.60;;;;;;;-148.56;100.00;61375.16;4991920;28;22784;-36
2021/08/02 09:31:00;;;;;;;2.33;1.20;;;;;;;-148.56;100.00;61375.16;4993613;28;20037;-37
2021/08/02 09:34:27;;;;;;;4.28;1.25;;;;;;;-148.56;100.00;61375.16;4994357;28;20113;-33
2021/08/02 09:37:54;;;;;;;5.30;1.17;;;;;;;-148.56;100.00;61375.16;4988735;28;20054;-34
2021/08/02 09:41:19;;;;;;;3.90;1.67;;;;;;;-148.56;100.00;61375.16;4991317;28;20038;-35
2021/08/02 09:44:46;;;;;;;5.30;1.77;;;;;;;-148.56;100.00;61375.16;4990650;28;20029;-33
2021/08/02 09:48:13;;;;;;;6.03;1.60;;;;;;;-148.56;100.00;61375.16;4992342;28;20717;-39
2021/08/02 09:51:42;;;;;;;6.22;1.70;;;;;;;-148.56;100.00;61375.16;4989933;28;20654;-31
2021/08/02 09:55:06;;;;;;;4.93;1.08;;;;;;;-148.56;100.00;61375.16;4997161;28;20042;-39
2021/08/02 09:58:30;;;;;;;2.63;1.30;;;;;;;-148.56;100.00;61375.16;4999251;28;20050;-35
2021/08/02 10:01:54;;;;;;;3.72;1.30;;;;;;;-148.56;100.00;61375.16;4990148;28;20532;-37
2021/08/02 10:05:19;;;;;;;2.65;1.30;;;;;;;-148.56;100.00;61375.16;4997666;28;20496;-35
2021/08/02 10:08:43;;;;;;;1.98;1.15;;;;;;;-148.56;100.00;61375.16;4994507;28;20026;-36
2021/08/02 10:12:07;;;;;;;3.85;1.23;;;;;;;-148.56;100.00;61375.16;4989929;28;20066;-35
2021/08/02 10:15:31;;;;;;;2.85;1.45;;;;;;;-148.56;100.00;61375.16;4988864;28;20061;-33
2021/08/02 10:19:06;;;;;;;1.77;1.00;;;;;;;-148.56;100.00;61375.16;4990565;28;20418;-29
2021/08/02 10:22:43;;;;;;;2.78;1.27;;;;;;;-148.56;100.00;61375.16;4986800;28;20022;-34
2021/08/02 10:26:28;;;;;;;1.98;0.98;;;;;;;-148.56;100.00;61375.16;4990447;28;20028;-36
2021/08/02 10:29:59;;;;;;;2.78;1.30;;;;;;;-148.56;100.00;61375.16;4987965;28;20025;-37
2021/08/02 10:33:30;;;;;;;1.58;0.98;;;;;;;-148.56;100.00;61375.16;4986318;28;20026;-32
2021/08/02 10:37:01;;;;;;;2.38;0.90;;;;;;;-148.56;100.00;61375.16;4987668;28;20116;-32
2021/08/02 10:40:25;;;;;;;1.52;0.93;;;;;;;-148.56;100.00;61375.16;4996495;28;20038;-34
2021/08/02 10:43:49;;;;;;;2.30;0.90;;;;;;;-148.56;100.00;61375.16;4992210;28;20508;-36
2021/08/02 10:47:19;;;;;;;2.28;0.80;;;;;;;-148.56;100.00;61375.16;4989507;28;20466;-32
2021/08/02 10:50:50;;;;;;;1.08;0.70;;;;;;;-148.56;100.00;61375.16;4985926;28;20894;-32
2021/08/02 10:54:14;;;;;;;7.00;1.10;;;;;;;-148.56;100.00;61375.16;4990263;28;20038;-30
2021/08/02 10:57:38;;;;;;;3.22;1.10;;;;;;;-148.56;100.00;61375.16;4990141;28;20025;-35
2021/08/02 11:01:06;;;;;;;3.17;0.90;;;;;;;-148.56;100.00;61375.16;4985401;28;20048;-37
2021/08/02 11:04:34;;;;;;;1.55;1.00;;;;;;;-148.56;100.00;61375.16;4975560;28;20503;-30
2021/08/02 11:08:04;;;;;;;3.47;1.10;;;;;;;-148.56;100.00;61375.16;4994874;28;20480;-28
2021/08/02 11:11:29;;;;;;;5.28;1.15;;;;;;;-148.56;100.00;61375.16;4985403;28;20085;-30
2021/08/02 11:15:22;;;;;;;3.83;0.98;;;;;;;-148.56;100.00;61375.16;4980787;28;20064;-35
2021/08/02 11:18:50;;;;;;;1.65;0.82;;;;;;;-148.56;100.00;61375.16;4980992;28;20036;-34
2021/08/02 11:22:21;;;;;;;6.00;1.65;;;;;;;-148.56;100.00;61375.16;4982069;28;20030;-34
2021/08/02 11:25:51;;;;;;;3.72;1.50;;;;;;;-148.56;100.00;61375.16;4982796;28;20030;-31
2021/08/02 11:29:18;;;;;;;3.78;1.30;;;;;;;-148.56;100.00;61375.16;5002504;28;20038;-34
2021/08/02 11:32:50;;;;;;;2.95;1.13;;;;;;;-148.56;100.00;61375.16;4986289;28;20160;-35
2021/08/02 11:36:15;;;;;;;5.32;1.63;;;;;;;-148.56;100.00;61375.16;4990579;28;20104;-30
2021/08/02 11:39:42;;;;;;;5.68;1.08;;;;;;;-148.56;100.00;61375.16;4991668;28;20026;-37
2021/08/02 11:43:11;;;;;;;2.00;1.08;;;;;;;-148.56;100.00;61375.16;4988181;28;20042;-34
2021/08/02 11:46:35;;;;;;;3.47;1.27;;;;;;;-148.56;100.00;61375.16;4990070;28;20030;-30
2021/08/02 11:49:59;;;;;;;5.03;1.10;;;;;;;-148.56;100.00;61375.16;4999771;28;20030;-33
2021/08/02 11:53:31;;;;;;;10.20;1.40;;;;;;;-148.56;100.00;61375.16;4998315;28;20065;-36
2021/08/02 11:56:55;;;;;;;6.53;1.52;;;;;;;-148.56;100.00;61375.16;4982600;28;20049;-35
2021/08/02 12:00:25;;;;;;;3.90;1.25;;;;;;;-148.56;100.00;61375.16;4984974;28;20042;-34
2021/08/02 12:03:53;;;;;;;4.63;0.90;;;;;;;-148.56;100.00;61375.16;4999156;28;20041;-33
2021/08/02 12:07:21;;;;;;;5.07;1.38;;;;;;;-148.56;100.00;61375.16;4980329;28;20485;-33
2021/08/02 12:11:14;;;;;;;3.70;1.42;;;;;;;-148.56;100.00;61375.16;4987737;28;22116;-36
2021/08/02 12:14:38;;;;;;;;;;;;;;;-148.56;100.00;61375.16;4990796;28;20115;-35
2021/08/02 12:17:08;;;;;;;3.17;1.33;;;;;;;28.24;36.72;61767.75;4984567;28;20016;-31
2021/08/02 12:19:43;;;;;;;5.13;1.25;;;;;;;28.21;36.89;61763.88;4986736;28;20582;-32
2021/08/02 12:22:08;;;;;;;2.08;1.10;;;;;;;28.17;36.75;61760.25;4988485;28;20063;-33
2021/08/02 12:25:36;;;;;;;4.55;1.50;;;;;;;-148.56;100.00;61375.16;4984373;28;20029;-35
2021/08/02 12:29:00;;;;;;;6.15;1.30;;;;;;;-148.56;100.00;61375.16;5006539;28;20049;-34
2021/08/02 12:32:37;;;;;;;5.82;1.60;;;;;;;-148.56;100.00;61375.16;4993850;28;20030;-34
2021/08/02 12:36:01;;;;;;;7.88;1.55;;;;;;;-148.56;100.00;61375.16;4984879;28;20018;-33
2021/08/02 12:39:27;;;;;;;3.10;1.35;;;;;;;-148.56;100.00;61375.16;4984518;28;20044;-36
2021/08/02 12:42:51;;;;;;;4.25;1.67;;;;;;;-148.56;100.00;61375.16;4996275;28;20057;-36
2021/08/02 12:46:15;;;;;;;4.68;1.60;;;;;;;-148.56;100.00;61375.16;4986602;28;20029;-32
2021/08/02 12:49:39;;;;;;;6.68;2.00;;;;;;;-148.56;100.00;61375.16;4986753;28;20094;-37
2021/08/02 12:53:04;;;;;;;5.75;1.67;;;;;;;-148.56;100.00;61375.16;4987173;28;20434;-34
2021/08/02 12:56:28;;;;;;;7.28;1.58;;;;;;;-148.56;100.00;61375.16;4988691;28;20046;-33
2021/08/02 12:59:58;;;;;;;6.38;1.27;;;;;;;-148.56;100.00;61375.16;4984955;28;20045;-35
2021/08/02 13:03:28;;;;;;;4.85;1.60;;;;;;;-148.56;100.00;61375.16;4984898;28;20088;-34
2021/08/02 13:06:52;;;;;;;3.10;1.73;;;;;;;-148.56;100.00;61375.16;4981412;28;20669;-35
2021/08/02 13:10:15;;;;;;;5.63;1.58;;;;;;;-148.56;100.00;61375.16;4980231;28;20121;-37
2021/08/02 13:13:39;;;;;;;3.53;1.60;;;;;;;-148.56;100.00;61375.16;4990478;28;20026;-34
2021/08/02 13:17:03;;;;;;;4.28;1.52;;;;;;;-148.56;100.00;61375.16;4988541;28;20042;-36
2021/08/02 13:20:05;;;;;;;4.30;1.33;;;;;;;28.17;36.75;61760.25;5001341;28;20032;-34
2021/08/02 13:23:33;;;;;;;3.60;1.40;;;;;;;-148.56;100.00;61375.16;4989076;28;20113;-33
2021/08/02 13:26:57;;;;;;;2.00;1.23;;;;;;;-148.56;100.00;61375.16;4996416;28;20038;-35
2021/08/02 13:30:25;;;;;;;5.95;1.38;;;;;;;-148.56;100.00;61375.16;4990477;28;20045;-33
2021/08/02 13:33:48;;;;;;;3.65;1.30;;;;;;;-148.56;100.00;61375.16;4984872;28;20026;-32
2021/08/02 13:37:12;;;;;;;12.15;1.88;;;;;;;-148.56;100.00;61375.16;4990645;28;20034;-32
2021/08/02 13:40:38;;;;;;;8.00;2.40;;;;;;;-148.56;100.00;61375.16;5000086;28;20029;-39
2021/08/02 13:44:02;;;;;;;7.32;2.78;;;;;;;-148.56;100.00;61375.16;4991442;28;20045;-36
2021/08/02 13:47:28;;;;;;;10.85;4.55;;;;;;;-148.56;100.00;61375.16;4979357;28;20510;-33
2021/08/02 13:50:52;;;;;;;88.32;32.70;;;;;;;-148.56;100.00;61375.16;4976399;28;20476;-33
2021/08/02 13:54:05;;;;;;;167.13;57.60;;;;;;;-148.56;36.75;44886.03;4984955;28;20033;-29
2021/08/02 13:56:31;;;;;;;189.00;70.38;;;;;;;28.16;36.51;61759.31;4987730;28;20033;-32
2021/08/02 13:58:56;;;;;;;160.23;60.50;;;;;;;28.15;36.55;61758.34;4982684;28;20092;-34
2021/08/02 14:01:22;;;;;;;105.78;44.63;;;;;;;28.14;36.07;61757.56;5007581;28;20037;-36
2021/08/02 14:03:47;;;;;;;131.50;52.05;;;;;;;28.13;35.99;61756.19;4990182;28;20037;-36
2021/08/02 14:06:13;;;;;;;111.40;46.45;;;;;;;28.12;35.99;61755.06;4988761;28;20029;-36